createdAt,value
2018-08-12T00:00:54.744Z,15.61
2018-08-12T00:01:54.750Z,15.64
2018-08-12T00:02:54.912Z,15.70
2018-08-12T00:04:15.759Z,15.66
2018-08-12T00:04:54.725Z,15.67
2018-08-12T00:05:54.736Z,15.51
2018-08-12T00:06:54.722Z,15.45
2018-08-12T00:07:54.720Z,15.49
2018-08-12T00:08:54.724Z,15.42
2018-08-12T00:10:15.718Z,15.38
2018-08-12T00:10:54.710Z,15.35
2018-08-12T00:11:54.712Z,15.23
2018-08-12T00:12:54.698Z,15.08
2018-08-12T00:13:54.694Z,15.06
2018-08-12T00:14:54.690Z,14.95
2018-08-12T00:16:15.693Z,14.94
2018-08-12T00:16:54.687Z,14.94
2018-08-12T00:17:54.681Z,14.91
2018-08-12T00:18:54.678Z,14.94
2018-08-12T00:19:54.666Z,14.90
2018-08-12T00:20:54.668Z,14.84
2018-08-12T00:22:15.669Z,14.88
2018-08-12T00:22:54.673Z,14.84
2018-08-12T00:23:54.655Z,14.80
2018-08-12T00:24:54.853Z,14.90
2018-08-12T00:25:54.652Z,14.93
2018-08-12T00:26:54.645Z,14.98
2018-08-12T00:28:15.646Z,15.05
2018-08-12T00:28:54.647Z,15.08
2018-08-12T00:29:54.633Z,15.12
2018-08-12T00:30:54.644Z,15.23
2018-08-12T00:31:54.629Z,15.20
2018-08-12T00:32:54.624Z,15.30
2018-08-12T00:34:15.626Z,15.36
2018-08-12T00:34:54.613Z,15.35
2018-08-12T00:35:54.611Z,15.42
2018-08-12T00:36:54.606Z,15.51
2018-08-12T00:37:54.601Z,15.49
2018-08-12T00:38:54.607Z,15.66
2018-08-12T00:40:15.611Z,15.72
2018-08-12T00:40:54.599Z,15.74
2018-08-12T00:41:54.584Z,15.75
2018-08-12T00:42:54.594Z,15.74
2018-08-12T00:43:54.581Z,15.82
2018-08-12T00:44:54.572Z,15.72
2018-08-12T00:46:15.576Z,15.68
2018-08-12T00:46:54.566Z,15.64
2018-08-12T00:47:54.565Z,15.61
2018-08-12T00:48:54.605Z,15.54
2018-08-12T00:49:54.551Z,15.56
2018-08-12T00:50:54.554Z,15.48
2018-08-12T00:52:15.566Z,15.42
2018-08-12T00:52:54.542Z,15.51
2018-08-12T00:53:54.548Z,15.51
2018-08-12T00:54:54.532Z,15.51
2018-08-12T00:55:54.526Z,15.52
2018-08-12T00:56:54.525Z,15.41
2018-08-12T00:58:15.535Z,15.28
2018-08-12T00:58:54.666Z,15.27
2018-08-12T00:59:54.523Z,15.13
2018-08-12T01:00:54.514Z,15.15
2018-08-12T01:01:54.521Z,14.98
2018-08-12T01:02:54.510Z,15.15
2018-08-12T01:04:15.513Z,15.30
2018-08-12T01:04:54.495Z,15.23
2018-08-12T01:05:54.492Z,15.24
2018-08-12T01:06:54.487Z,15.12
2018-08-12T01:07:54.486Z,15.30
2018-08-12T01:08:54.481Z,15.33
2018-08-12T01:10:15.489Z,15.36
2018-08-12T01:10:54.473Z,15.33
2018-08-12T01:11:54.471Z,15.38
2018-08-12T01:12:54.470Z,15.38
2018-08-12T01:13:54.459Z,15.35
2018-08-12T01:14:54.477Z,15.13
2018-08-12T01:16:15.461Z,15.21
2018-08-12T01:16:54.455Z,15.12
2018-08-12T01:17:54.449Z,15.06
2018-08-12T01:18:54.449Z,15.02
2018-08-12T01:19:54.456Z,15.02
2018-08-12T01:20:54.440Z,15.02
2018-08-12T01:22:15.440Z,15.01
2018-08-12T01:22:54.423Z,14.91
2018-08-12T01:23:54.425Z,14.90
2018-08-12T01:24:54.418Z,15.01
2018-08-12T01:25:54.417Z,15.06
2018-08-12T01:26:54.457Z,15.06
2018-08-12T01:28:15.417Z,15.08
2018-08-12T01:28:54.407Z,15.09
2018-08-12T01:29:54.399Z,15.09
2018-08-12T01:30:54.410Z,15.09
2018-08-12T02:04:07.640Z,15.24
2018-08-12T02:05:07.609Z,15.20
2018-08-12T02:07:00.543Z,15.20
2018-08-12T02:08:00.503Z,15.15
2018-08-12T02:09:53.400Z,15.23
2018-08-12T02:10:53.385Z,15.13
2018-08-12T02:12:46.350Z,15.35
2018-08-12T02:13:46.313Z,15.30
2018-08-12T02:15:39.262Z,15.27
2018-08-12T02:16:39.244Z,15.24
2018-08-12T02:18:32.153Z,15.20
2018-08-12T02:19:32.145Z,15.20
2018-08-12T02:21:25.102Z,15.08
2018-08-12T02:22:25.079Z,15.06
2018-08-12T02:24:18.010Z,15.08
2018-08-12T02:25:17.999Z,15.08
2018-08-12T02:27:10.960Z,15.03
2018-08-12T02:28:10.887Z,15.12
2018-08-12T02:30:03.822Z,15.13
2018-08-12T02:31:03.808Z,15.11
2018-08-12T02:32:56.744Z,15.06
2018-08-12T02:33:56.722Z,15.06
2018-08-12T02:35:49.633Z,15.02
2018-08-12T02:36:49.617Z,14.93
2018-08-12T02:38:42.527Z,14.72
2018-08-12T02:39:42.518Z,14.68
2018-08-12T02:41:35.476Z,14.38
2018-08-12T02:42:35.457Z,14.29
2018-08-12T02:44:28.587Z,14.25
2018-08-12T02:45:28.581Z,14.16
2018-08-12T02:47:21.508Z,13.95
2018-08-12T02:48:21.479Z,13.84
2018-08-12T02:50:14.474Z,13.83
2018-08-12T02:51:14.455Z,13.77
2018-08-12T02:53:07.384Z,13.80
2018-08-12T02:54:07.365Z,13.83
2018-08-12T02:56:00.352Z,13.77
2018-08-12T02:57:00.322Z,13.77
2018-08-12T02:58:53.246Z,13.80
2018-08-12T02:59:53.232Z,13.77
2018-08-12T03:01:46.150Z,13.80
2018-08-12T03:02:46.133Z,13.71
2018-08-12T03:04:39.115Z,13.73
2018-08-12T03:05:39.086Z,13.80
2018-08-12T03:07:31.991Z,13.81
2018-08-12T03:08:31.979Z,13.67
2018-08-12T03:10:24.914Z,13.65
2018-08-12T03:11:24.891Z,13.63
2018-08-12T03:13:17.876Z,13.70
2018-08-12T03:14:17.845Z,13.61
2018-08-12T03:16:10.785Z,13.73
2018-08-12T03:17:10.763Z,13.63
2018-08-12T03:19:03.681Z,13.61
2018-08-12T03:20:03.671Z,13.56
2018-08-12T03:21:56.631Z,13.52
2018-08-12T03:22:56.608Z,13.55
2018-08-12T03:24:49.535Z,13.55
2018-08-12T03:25:49.523Z,13.51
2018-08-12T03:27:42.454Z,13.40
2018-08-12T03:28:42.430Z,13.49
2018-08-12T03:30:35.377Z,13.41
2018-08-12T03:31:35.358Z,13.36
2018-08-12T03:33:28.323Z,13.43
2018-08-12T03:34:28.300Z,13.37
2018-08-12T03:36:21.292Z,13.44
2018-08-12T03:37:21.279Z,13.37
2018-08-12T03:39:14.219Z,13.38
2018-08-12T03:40:14.201Z,13.36
2018-08-12T03:42:07.126Z,13.36
2018-08-12T03:43:07.104Z,13.41
2018-08-12T03:45:00.046Z,13.47
2018-08-12T03:46:00.031Z,13.33
2018-08-12T03:47:52.931Z,13.29
2018-08-12T03:48:52.925Z,13.32
2018-08-12T03:50:45.815Z,13.27
2018-08-12T03:51:45.805Z,13.25
2018-08-12T03:53:38.735Z,13.12
2018-08-12T03:54:38.715Z,13.11
2018-08-12T03:56:31.665Z,13.14
2018-08-12T03:57:31.638Z,13.14
2018-08-12T03:59:24.571Z,12.93
2018-08-12T04:00:24.554Z,12.87
2018-08-12T04:02:17.512Z,12.99
2018-08-12T04:03:17.445Z,13.07
2018-08-12T04:05:10.376Z,13.00
2018-08-12T04:06:10.366Z,13.11
2018-08-12T04:08:03.281Z,13.07
2018-08-12T04:09:03.260Z,13.02
2018-08-12T04:10:56.157Z,13.27
2018-08-12T04:11:56.146Z,13.21
2018-08-12T04:13:49.281Z,13.18
2018-08-12T04:14:49.273Z,13.18
2018-08-12T04:16:42.228Z,13.21
2018-08-12T04:17:42.213Z,13.21
2018-08-12T04:19:35.158Z,13.12
2018-08-12T04:20:35.131Z,13.12
2018-08-12T04:22:28.076Z,13.12
2018-08-12T04:23:28.046Z,13.11
2018-08-12T04:25:20.985Z,13.24
2018-08-12T04:26:20.975Z,13.22
2018-08-12T04:28:13.905Z,13.30
2018-08-12T04:29:13.885Z,13.36
2018-08-12T04:31:06.797Z,13.24
2018-08-12T04:32:06.784Z,13.25
2018-08-12T04:33:59.757Z,13.36
2018-08-12T04:34:59.732Z,13.37
2018-08-12T04:36:52.641Z,13.44
2018-08-12T04:37:52.629Z,13.43
2018-08-12T04:39:45.558Z,13.40
2018-08-12T04:40:45.539Z,13.43
2018-08-12T04:42:38.513Z,13.41
2018-08-12T04:43:38.492Z,13.51
2018-08-12T04:45:31.392Z,13.43
2018-08-12T04:46:31.384Z,13.41
2018-08-12T04:48:24.295Z,13.38
2018-08-12T04:49:24.273Z,13.59
2018-08-12T04:51:17.200Z,13.63
2018-08-12T04:52:17.207Z,13.61
2018-08-12T04:54:10.091Z,13.63
2018-08-12T04:55:10.069Z,13.70
2018-08-12T04:57:02.974Z,13.80
2018-08-12T04:58:02.968Z,13.87
2018-08-12T04:59:55.872Z,13.80
2018-08-12T05:00:55.848Z,13.83
2018-08-12T05:02:48.788Z,13.96
2018-08-12T05:03:48.767Z,14.07
2018-08-12T05:05:41.730Z,14.07
2018-08-12T05:06:41.717Z,14.09
2018-08-12T05:08:34.652Z,14.14
2018-08-12T05:09:34.630Z,14.20
2018-08-12T05:11:27.533Z,14.20
2018-08-12T05:12:27.525Z,14.21
2018-08-12T05:14:20.432Z,14.24
2018-08-12T05:15:20.413Z,14.25
2018-08-12T05:17:13.340Z,14.35
2018-08-12T05:18:13.329Z,14.43
2018-08-12T05:20:06.247Z,14.50
2018-08-12T05:21:06.217Z,14.56
2018-08-12T05:22:59.133Z,14.61
2018-08-12T05:23:59.109Z,14.64
2018-08-12T05:25:52.044Z,14.72
2018-08-12T05:26:52.038Z,14.61
2018-08-12T05:28:44.960Z,14.78
2018-08-12T05:29:44.945Z,14.87
2018-08-12T05:31:37.869Z,14.98
2018-08-12T05:32:37.848Z,14.99
2018-08-12T05:34:30.765Z,15.06
2018-08-12T05:35:30.746Z,15.20
2018-08-12T05:36:30.761Z,15.26
2018-08-12T05:37:30.745Z,15.35
2018-08-12T05:38:30.736Z,15.33
2018-08-12T05:39:30.734Z,15.45
2018-08-12T05:40:30.729Z,15.43
2018-08-12T05:41:30.732Z,15.46
2018-08-12T05:42:30.727Z,15.46
2018-08-12T05:43:30.732Z,15.46
2018-08-12T05:44:30.721Z,15.60
2018-08-12T05:45:30.714Z,15.61
2018-08-12T05:46:30.756Z,15.66
2018-08-12T05:47:30.713Z,15.67
2018-08-12T05:48:30.714Z,15.74
2018-08-12T05:49:30.734Z,15.67
2018-08-12T05:50:30.700Z,15.72
2018-08-12T05:51:30.792Z,15.82
2018-08-12T05:52:30.692Z,15.93
2018-08-12T05:53:30.689Z,15.97
2018-08-12T05:54:30.686Z,15.96
2018-08-12T05:55:30.682Z,15.99
2018-08-12T05:56:30.725Z,16.14
2018-08-12T05:57:30.734Z,16.09
2018-08-12T05:58:30.694Z,16.01
2018-08-12T05:59:30.693Z,16.15
2018-08-12T06:00:30.699Z,16.22
2018-08-12T06:01:30.702Z,16.23
2018-08-12T06:02:30.696Z,16.27
2018-08-12T06:03:30.692Z,16.27
2018-08-12T06:04:30.693Z,16.35
2018-08-12T06:05:30.688Z,16.44
2018-08-12T06:06:30.692Z,16.52
2018-08-12T06:07:30.676Z,16.55
2018-08-12T06:08:30.677Z,16.60
2018-08-12T06:09:30.654Z,16.71
2018-08-12T06:10:30.668Z,16.81
2018-08-12T06:11:30.671Z,16.78
2018-08-12T06:12:30.675Z,16.78
2018-08-12T06:13:30.682Z,16.99
2018-08-12T06:14:30.647Z,17.04
2018-08-12T06:15:30.655Z,17.11
2018-08-12T06:16:30.627Z,17.15
2018-08-12T06:17:30.689Z,17.14
2018-08-12T06:18:30.622Z,17.26
2018-08-12T06:19:30.679Z,17.22
2018-08-12T06:20:30.621Z,17.26
2018-08-12T06:21:30.616Z,17.32
2018-08-12T06:22:30.614Z,17.51
2018-08-12T06:23:30.612Z,17.53
2018-08-12T06:24:30.607Z,17.74
2018-08-12T06:25:30.630Z,17.81
2018-08-12T06:26:30.606Z,17.92
2018-08-12T06:27:30.605Z,17.89
2018-08-12T06:28:30.631Z,17.87
2018-08-12T06:29:30.605Z,17.89
2018-08-12T06:30:30.601Z,17.92
2018-08-12T06:31:30.649Z,18.15
2018-08-12T06:32:30.595Z,18.22
2018-08-12T06:33:30.592Z,18.24
2018-08-12T06:34:30.615Z,18.31
2018-08-12T06:35:30.584Z,18.29
2018-08-12T06:36:30.585Z,18.24
2018-08-12T06:37:30.587Z,18.25
2018-08-12T06:38:30.583Z,18.29
2018-08-12T06:39:30.579Z,18.37
2018-08-12T06:40:30.581Z,18.49
2018-08-12T06:41:30.586Z,18.47
2018-08-12T06:42:30.581Z,18.52
2018-08-12T06:43:30.625Z,18.67
2018-08-12T06:44:30.574Z,18.80
2018-08-12T06:45:30.573Z,18.79
2018-08-12T06:46:30.569Z,18.98
2018-08-12T06:47:30.570Z,19.20
2018-08-12T06:48:30.561Z,18.98
2018-08-12T06:49:30.609Z,19.18
2018-08-12T06:50:30.565Z,19.24
2018-08-12T06:51:30.564Z,19.24
2018-08-12T06:52:30.562Z,19.35
2018-08-12T06:53:30.562Z,19.51
2018-08-12T06:54:30.580Z,19.70
2018-08-12T06:55:30.597Z,19.70
2018-08-12T06:56:30.565Z,19.43
2018-08-12T06:57:30.584Z,19.53
2018-08-12T06:58:30.601Z,19.87
2018-08-12T06:59:30.591Z,19.94
2018-08-12T07:00:30.598Z,19.95
2018-08-12T07:01:30.550Z,20.21
2018-08-12T07:02:30.547Z,20.47
2018-08-12T07:03:30.553Z,20.53
2018-08-12T07:04:30.556Z,20.64
2018-08-12T07:05:30.547Z,20.76
2018-08-12T07:06:30.548Z,20.74
2018-08-12T07:07:30.546Z,20.90
2018-08-12T07:08:30.547Z,20.99
2018-08-12T07:09:30.547Z,21.05
2018-08-12T07:10:30.552Z,21.20
2018-08-12T07:11:30.546Z,21.39
2018-08-12T07:12:30.544Z,21.45
2018-08-12T07:13:30.560Z,21.30
2018-08-12T07:14:30.545Z,21.50
2018-08-12T07:15:30.546Z,21.53
2018-08-12T07:16:30.544Z,21.57
2018-08-12T07:17:30.548Z,21.88
2018-08-12T07:18:30.545Z,21.99
2018-08-12T07:19:30.556Z,21.38
2018-08-12T07:20:30.557Z,21.98
2018-08-12T07:21:30.561Z,22.74
2018-08-12T07:22:30.544Z,23.15
2018-08-12T07:23:30.547Z,23.45
2018-08-12T07:24:30.543Z,23.86
2018-08-12T07:25:30.559Z,24.13
2018-08-12T07:26:30.552Z,23.83
2018-08-12T07:27:30.560Z,23.89
2018-08-12T07:28:30.576Z,23.85
2018-08-12T07:29:31.243Z,24.59
2018-08-12T07:30:30.567Z,24.60
2018-08-12T07:31:30.563Z,25.27
2018-08-12T07:32:30.571Z,25.44
2018-08-12T07:33:30.576Z,25.50
2018-08-12T07:34:30.583Z,25.13
2018-08-12T07:35:30.591Z,26.05
2018-08-12T07:36:30.596Z,25.82
2018-08-12T07:37:30.616Z,26.21
2018-08-12T07:38:30.617Z,26.39
2018-08-12T07:39:30.619Z,27.26
2018-08-12T07:40:30.632Z,27.64
2018-08-12T07:41:30.635Z,27.09
2018-08-12T07:42:30.651Z,27.32
2018-08-12T07:43:30.656Z,27.31
2018-08-12T07:44:30.668Z,27.17
2018-08-12T07:45:30.676Z,27.85
2018-08-12T07:46:30.687Z,27.98
2018-08-12T07:47:30.694Z,27.98
2018-08-12T07:48:30.708Z,27.94
2018-08-12T07:49:30.731Z,27.57
2018-08-12T07:50:30.730Z,26.91
2018-08-12T07:51:30.736Z,27.51
2018-08-12T07:52:30.743Z,27.69
2018-08-12T07:53:30.775Z,27.50
2018-08-12T07:54:30.822Z,27.09
2018-08-12T07:55:30.839Z,26.73
2018-08-12T07:56:30.793Z,27.46
2018-08-12T07:57:30.875Z,27.39
2018-08-12T07:58:30.872Z,28.35
2018-08-12T07:59:30.826Z,27.28
2018-08-12T08:00:30.838Z,27.14
2018-08-12T08:01:30.851Z,27.85
2018-08-12T08:02:30.899Z,27.95
2018-08-12T08:03:30.900Z,28.54
2018-08-12T08:04:30.894Z,29.37
2018-08-12T08:05:30.906Z,30.38
2018-08-12T08:06:30.922Z,30.07
2018-08-12T08:07:30.935Z,28.66
2018-08-12T08:08:30.943Z,28.78
2018-08-12T08:09:30.965Z,29.81
2018-08-12T08:10:30.974Z,29.03
2018-08-12T08:11:30.978Z,29.31
2018-08-12T08:12:31.003Z,30.07
2018-08-12T08:13:31.015Z,30.38
2018-08-12T08:14:31.022Z,31.02
2018-08-12T08:15:31.036Z,29.89
2018-08-12T08:16:31.046Z,28.41
2018-08-12T08:17:31.067Z,27.73
2018-08-12T08:18:31.083Z,26.99
2018-08-12T08:19:31.123Z,27.09
2018-08-12T08:20:31.132Z,26.61
2018-08-12T08:21:31.125Z,26.64
2018-08-12T08:22:31.137Z,26.89
2018-08-12T08:23:31.150Z,26.83
2018-08-12T08:24:31.162Z,27.76
2018-08-12T08:25:31.257Z,28.93
2018-08-12T08:26:31.191Z,29.74
2018-08-12T08:27:31.203Z,29.28
2018-08-12T08:28:31.272Z,29.66
2018-08-12T08:29:31.295Z,29.28
2018-08-12T08:30:31.246Z,30.11
2018-08-12T08:31:31.281Z,31.28
2018-08-12T08:32:31.283Z,32.06
2018-08-12T08:33:31.296Z,32.11
2018-08-12T08:34:31.302Z,31.68
2018-08-12T08:35:31.328Z,31.30
2018-08-12T08:36:31.335Z,31.40
2018-08-12T08:37:31.354Z,30.56
2018-08-12T08:38:31.374Z,30.90
2018-08-12T08:39:31.454Z,29.78
2018-08-12T08:40:31.400Z,30.87
2018-08-12T08:41:31.417Z,30.40
2018-08-12T08:42:31.436Z,30.71
2018-08-12T08:43:31.453Z,31.24
2018-08-12T08:44:31.467Z,30.00
2018-08-12T08:45:31.484Z,29.18
2018-08-12T08:46:31.497Z,28.75
2018-08-12T08:47:31.519Z,28.62
2018-08-12T08:48:31.533Z,29.15
2018-08-12T08:49:31.595Z,30.11
2018-08-12T08:50:31.571Z,29.66
2018-08-12T08:51:31.578Z,29.50
2018-08-12T08:52:31.601Z,29.43
2018-08-12T08:53:31.612Z,29.26
2018-08-12T08:54:31.627Z,29.59
2018-08-12T08:55:31.676Z,30.16
2018-08-12T08:56:31.661Z,30.94
2018-08-12T08:57:31.678Z,31.58
2018-08-12T08:58:31.724Z,31.70
2018-08-12T08:59:31.733Z,31.84
2018-08-12T09:00:31.732Z,31.68
2018-08-12T09:01:31.819Z,30.80
2018-08-12T09:02:31.766Z,30.50
2018-08-12T09:03:31.781Z,31.23
2018-08-12T09:04:31.804Z,31.79
2018-08-12T09:05:31.836Z,30.89
2018-08-12T09:06:31.855Z,31.05
2018-08-12T09:07:31.854Z,32.15
2018-08-12T09:08:32.238Z,33.11
2018-08-12T09:09:31.963Z,33.83
2018-08-12T09:10:32.077Z,34.41
2018-08-12T09:11:31.954Z,33.57
2018-08-12T09:12:31.940Z,31.84
2018-08-12T09:13:31.980Z,31.36
2018-08-12T09:14:32.106Z,32.29
2018-08-12T09:15:31.989Z,33.20
2018-08-12T09:16:32.009Z,33.10
2018-08-12T09:17:32.030Z,33.26
2018-08-12T09:18:32.045Z,33.20
2018-08-12T09:19:32.064Z,32.21
2018-08-12T09:20:32.080Z,32.11
2018-08-12T09:21:32.096Z,32.25
2018-08-12T09:22:32.115Z,32.89
2018-08-12T09:23:32.155Z,33.30
2018-08-12T09:24:32.152Z,32.52
2018-08-12T09:25:32.217Z,32.66
2018-08-12T09:26:32.186Z,32.48
2018-08-12T09:27:32.205Z,32.20
2018-08-12T09:28:32.281Z,32.67
2018-08-12T09:29:32.259Z,33.48
2018-08-12T09:30:32.260Z,33.63
2018-08-12T09:31:32.301Z,33.39
2018-08-12T09:32:32.300Z,33.11
2018-08-12T09:33:32.306Z,33.31
2018-08-12T09:34:32.348Z,32.39
2018-08-12T09:35:32.349Z,32.88
2018-08-12T09:36:32.387Z,31.75
2018-08-12T09:37:32.389Z,32.10
2018-08-12T09:38:32.406Z,31.23
2018-08-12T09:39:32.430Z,31.84
2018-08-12T09:40:32.455Z,31.15
2018-08-12T09:41:32.467Z,30.56
2018-08-12T09:42:32.481Z,30.56
2018-08-12T09:43:32.496Z,31.05
2018-08-12T09:44:32.513Z,30.81
2018-08-12T09:45:32.531Z,31.57
2018-08-12T09:46:32.555Z,31.23
2018-08-12T09:47:32.565Z,30.57
2018-08-12T09:48:32.591Z,30.61
2018-08-12T09:49:32.617Z,31.21
2018-08-12T09:50:32.619Z,31.40
2018-08-12T09:51:32.692Z,32.30
2018-08-12T09:52:32.656Z,33.13
2018-08-12T09:53:32.676Z,31.12
2018-08-12T09:54:32.693Z,30.68
2018-08-12T09:55:32.709Z,31.48
2018-08-12T09:56:32.726Z,31.64
2018-08-12T09:57:32.749Z,31.15
2018-08-12T09:58:32.863Z,32.10
2018-08-12T09:59:32.787Z,32.99
2018-08-12T10:00:32.801Z,32.33
2018-08-12T10:01:32.819Z,32.49
2018-08-12T10:02:32.842Z,31.15
2018-08-12T10:03:32.941Z,31.17
2018-08-12T10:04:32.980Z,30.36
2018-08-12T10:05:32.984Z,30.38
2018-08-12T10:06:32.954Z,30.59
2018-08-12T10:07:33.038Z,31.05
2018-08-12T10:08:32.971Z,32.03
2018-08-12T10:09:33.011Z,32.37
2018-08-12T10:10:32.978Z,33.07
2018-08-12T10:11:32.990Z,32.62
2018-08-12T10:12:33.026Z,32.81
2018-08-12T10:13:33.042Z,33.51
2018-08-12T10:14:33.046Z,33.98
2018-08-12T10:15:33.181Z,34.74
2018-08-12T10:16:33.094Z,35.35
2018-08-12T10:17:33.103Z,35.86
2018-08-12T10:18:33.119Z,36.06
2018-08-12T10:19:33.151Z,36.11
2018-08-12T10:20:33.166Z,35.08
2018-08-12T10:21:33.179Z,34.16
2018-08-12T10:22:33.236Z,33.57
2018-08-12T10:23:33.218Z,34.39
2018-08-12T10:24:33.248Z,34.81
2018-08-12T10:25:33.269Z,35.44
2018-08-12T10:26:33.268Z,35.67
2018-08-12T10:27:33.295Z,35.91
2018-08-12T10:28:33.310Z,35.39
2018-08-12T10:29:33.391Z,35.30
2018-08-12T10:30:33.354Z,34.29
2018-08-12T10:31:33.360Z,34.39
2018-08-12T10:32:33.376Z,35.25
2018-08-12T10:33:33.394Z,34.02
2018-08-12T10:34:33.425Z,33.19
2018-08-12T10:35:33.462Z,33.33
2018-08-12T10:36:33.449Z,32.71
2018-08-12T10:37:33.473Z,32.96
2018-08-12T10:38:33.544Z,33.64
2018-08-12T10:39:33.582Z,33.51
2018-08-12T10:40:33.530Z,34.22
2018-08-12T10:41:33.547Z,35.17
2018-08-12T10:42:33.567Z,35.77
2018-08-12T10:43:33.613Z,36.17
2018-08-12T10:44:33.633Z,36.82
2018-08-12T10:45:33.619Z,37.29
2018-08-12T10:46:33.652Z,37.61
2018-08-12T10:47:33.655Z,37.70
2018-08-12T10:48:33.683Z,36.67
2018-08-12T10:49:33.691Z,35.89
2018-08-12T10:50:33.738Z,35.88
2018-08-12T10:51:33.731Z,35.92
2018-08-12T10:52:33.761Z,36.23
2018-08-12T10:53:33.777Z,36.36
2018-08-12T10:54:33.786Z,35.81
2018-08-12T10:55:33.803Z,34.73
2018-08-12T10:56:33.825Z,34.04
2018-08-12T10:57:33.877Z,33.64
2018-08-12T10:58:33.909Z,32.81
2018-08-12T10:59:33.924Z,33.68
2018-08-12T11:00:33.965Z,34.66
2018-08-12T11:01:33.935Z,35.36
2018-08-12T11:02:33.936Z,34.56
2018-08-12T11:03:33.956Z,34.08
2018-08-12T11:04:33.979Z,34.31
2018-08-12T11:05:33.996Z,35.07
2018-08-12T11:06:34.014Z,35.81
2018-08-12T11:07:34.124Z,36.20
2018-08-12T11:08:34.086Z,35.50
2018-08-12T11:09:34.090Z,35.50
2018-08-12T11:10:34.093Z,35.17
2018-08-12T11:11:34.107Z,35.67
2018-08-12T11:12:34.185Z,35.60
2018-08-12T11:13:34.143Z,35.10
2018-08-12T11:14:34.170Z,33.46
2018-08-12T11:15:34.274Z,32.20
2018-08-12T11:16:34.241Z,33.01
2018-08-12T11:17:34.220Z,33.65
2018-08-12T11:18:34.242Z,34.56
2018-08-12T11:19:34.260Z,33.30
2018-08-12T11:20:34.378Z,32.61
2018-08-12T11:21:34.290Z,32.21
2018-08-12T11:22:35.187Z,32.59
2018-08-12T11:23:34.325Z,33.11
2018-08-12T11:24:34.338Z,32.84
2018-08-12T11:25:34.369Z,31.95
2018-08-12T11:26:34.380Z,31.45
2018-08-12T11:27:34.414Z,31.58
2018-08-12T11:28:34.489Z,32.49
2018-08-12T11:29:34.437Z,32.85
2018-08-12T11:30:34.456Z,32.85
2018-08-12T11:31:34.477Z,32.69
2018-08-12T11:32:34.498Z,33.41
2018-08-12T11:33:34.510Z,33.39
2018-08-12T11:34:34.525Z,34.05
2018-08-12T11:35:34.548Z,34.53
2018-08-12T11:36:34.632Z,33.57
2018-08-12T11:37:34.585Z,32.55
2018-08-12T11:38:34.618Z,33.11
2018-08-12T11:39:34.619Z,33.92
2018-08-12T11:40:34.648Z,34.57
2018-08-12T11:41:34.652Z,35.32
2018-08-12T11:42:34.664Z,34.22
2018-08-12T11:43:34.691Z,33.86
2018-08-12T11:44:34.712Z,33.67
2018-08-12T11:45:34.725Z,33.61
2018-08-12T11:46:34.759Z,33.71
2018-08-12T11:47:34.850Z,33.37
2018-08-12T11:48:34.783Z,33.49
2018-08-12T11:49:34.797Z,33.71
2018-08-12T11:50:34.818Z,34.51
2018-08-12T11:51:34.836Z,35.29
2018-08-12T11:52:34.853Z,35.29
2018-08-12T11:53:34.877Z,35.30
2018-08-12T11:54:34.892Z,36.04
2018-08-12T11:55:34.919Z,36.06
2018-08-12T11:56:34.921Z,35.02
2018-08-12T11:57:34.940Z,35.54
2018-08-12T11:58:34.981Z,35.57
2018-08-12T11:59:35.063Z,36.14
2018-08-12T12:00:34.983Z,35.39
2018-08-12T12:01:35.016Z,34.01
2018-08-12T12:02:35.036Z,34.80
2018-08-12T12:03:35.050Z,34.86
2018-08-12T12:04:35.098Z,34.80
2018-08-12T12:05:35.084Z,35.02
2018-08-12T12:06:35.107Z,35.58
2018-08-12T12:07:35.121Z,34.73
2018-08-12T12:08:35.159Z,35.30
2018-08-12T12:09:35.171Z,34.72
2018-08-12T12:10:35.187Z,34.86
2018-08-12T12:11:35.197Z,34.96
2018-08-12T12:12:35.212Z,34.38
2018-08-12T12:13:35.269Z,35.10
2018-08-12T12:14:35.252Z,34.13
2018-08-12T12:15:35.265Z,33.19
2018-08-12T12:16:35.283Z,33.45
2018-08-12T12:17:35.880Z,33.70
2018-08-12T12:18:35.322Z,33.89
2018-08-12T12:19:35.334Z,34.20
2018-08-12T12:20:35.437Z,34.84
2018-08-12T12:21:35.375Z,35.20
2018-08-12T12:22:35.413Z,35.70
2018-08-12T12:23:35.407Z,35.92
2018-08-12T12:24:35.430Z,34.91
2018-08-12T12:25:35.554Z,34.74
2018-08-12T12:26:35.525Z,34.96
2018-08-12T12:27:35.514Z,35.30
2018-08-12T12:28:35.559Z,34.94
2018-08-12T12:29:35.512Z,34.60
2018-08-12T12:30:35.547Z,34.04
2018-08-12T12:31:35.546Z,33.58
2018-08-12T12:32:35.589Z,33.11
2018-08-12T12:33:35.589Z,32.86
2018-08-12T12:34:35.597Z,32.52
2018-08-12T12:35:36.231Z,32.49
2018-08-12T12:36:36.154Z,31.82
2018-08-12T12:37:35.649Z,31.70
2018-08-12T12:38:35.661Z,31.61
2018-08-12T12:39:35.681Z,30.99
2018-08-12T12:40:35.688Z,30.53
2018-08-12T12:41:35.700Z,30.31
2018-08-12T12:42:35.713Z,29.87
2018-08-12T12:43:35.764Z,30.11
2018-08-12T12:44:35.749Z,30.19
2018-08-12T12:45:35.750Z,30.46
2018-08-12T12:46:35.776Z,30.53
2018-08-12T12:47:35.769Z,30.50
2018-08-12T12:48:35.792Z,30.53
2018-08-12T12:49:35.872Z,30.56
2018-08-12T12:50:35.818Z,30.50
2018-08-12T12:51:35.825Z,30.46
2018-08-12T12:52:35.819Z,30.40
2018-08-12T12:53:35.922Z,30.34
2018-08-12T12:54:35.899Z,30.27
2018-08-12T12:55:35.847Z,30.07
2018-08-12T12:56:35.852Z,30.08
2018-08-12T12:57:35.866Z,30.03
2018-08-12T12:58:35.900Z,29.87
2018-08-12T12:59:35.877Z,29.60
2018-08-12T13:00:35.892Z,29.62
2018-08-12T13:01:35.890Z,29.70
2018-08-12T13:02:35.899Z,29.41
2018-08-12T13:03:35.902Z,29.40
2018-08-12T13:04:35.910Z,29.20
2018-08-12T13:05:35.937Z,29.29
2018-08-12T13:06:35.942Z,29.29
2018-08-12T13:07:35.931Z,28.66
2018-08-12T13:08:35.936Z,28.54
2018-08-12T13:09:35.942Z,28.56
2018-08-12T13:10:35.947Z,28.43
2018-08-12T13:11:35.956Z,28.36
2018-08-12T13:12:36.076Z,28.35
2018-08-12T13:13:35.975Z,28.47
2018-08-12T13:14:36.006Z,28.53
2018-08-12T13:15:36.048Z,28.63
2018-08-12T13:16:35.984Z,28.77
2018-08-12T13:17:35.989Z,28.95
2018-08-12T13:18:35.995Z,29.07
2018-08-12T13:19:35.999Z,29.07
2018-08-12T13:20:36.010Z,29.20
2018-08-12T13:21:36.094Z,29.18
2018-08-12T13:22:36.039Z,28.96
2018-08-12T13:23:36.817Z,28.91
2018-08-12T13:24:36.049Z,28.80
2018-08-12T13:25:36.034Z,28.96
2018-08-12T13:26:36.163Z,28.95
2018-08-12T13:27:36.048Z,28.95
2018-08-12T13:28:36.066Z,28.93
2018-08-12T13:29:36.076Z,28.97
2018-08-12T13:30:36.058Z,28.91
2018-08-12T13:31:36.062Z,29.00
2018-08-12T13:32:36.072Z,28.97
2018-08-12T13:33:36.071Z,28.85
2018-08-12T13:34:36.083Z,28.82
2018-08-12T13:35:36.079Z,29.04
2018-08-12T13:36:36.085Z,29.01
2018-08-12T13:37:36.111Z,29.08
2018-08-12T13:38:36.104Z,29.10
2018-08-12T13:39:36.107Z,29.10
2018-08-12T13:40:36.119Z,29.07
2018-08-12T13:41:36.120Z,29.16
2018-08-12T13:42:36.140Z,29.22
2018-08-12T13:43:36.201Z,29.22
2018-08-12T13:44:36.150Z,29.06
2018-08-12T13:45:36.142Z,29.04
2018-08-12T13:46:36.163Z,29.11
2018-08-12T13:47:36.157Z,28.97
2018-08-12T13:48:36.161Z,28.73
2018-08-12T13:49:36.162Z,28.77
2018-08-12T13:50:36.673Z,28.85
2018-08-12T13:51:36.181Z,28.85
2018-08-12T13:52:36.162Z,28.85
2018-08-12T13:53:36.164Z,28.80
2018-08-12T13:54:36.165Z,28.84
2018-08-12T13:55:36.177Z,28.93
2018-08-12T13:56:36.174Z,28.84
2018-08-12T13:57:36.188Z,28.88
2018-08-12T13:58:36.256Z,28.84
2018-08-12T13:59:36.189Z,28.93
2018-08-12T14:00:36.186Z,28.66
2018-08-12T14:01:36.241Z,28.60
2018-08-12T14:02:36.196Z,28.63
2018-08-12T14:03:36.206Z,28.75
2018-08-12T14:04:36.208Z,28.69
2018-08-12T14:05:36.266Z,28.68
2018-08-12T14:06:36.219Z,28.75
2018-08-12T14:07:36.222Z,28.85
2018-08-12T14:08:36.228Z,28.77
2018-08-12T14:09:36.229Z,28.72
2018-08-12T14:10:36.235Z,28.81
2018-08-12T14:11:36.239Z,28.77
2018-08-12T14:12:36.242Z,28.77
2018-08-12T14:13:36.303Z,28.78
2018-08-12T14:14:36.273Z,28.81
2018-08-12T14:15:36.290Z,28.91
2018-08-12T14:16:36.315Z,28.84
2018-08-12T14:17:36.268Z,28.90
2018-08-12T14:18:36.268Z,28.96
2018-08-12T14:19:36.349Z,28.96
2018-08-12T14:20:36.280Z,28.95
2018-08-12T14:21:36.282Z,28.93
2018-08-12T14:22:36.357Z,28.87
2018-08-12T14:23:36.290Z,28.87
2018-08-12T14:24:36.291Z,28.90
2018-08-12T14:25:36.301Z,28.80
2018-08-12T14:26:36.301Z,28.73
2018-08-12T14:27:36.307Z,28.70
2018-08-12T14:28:36.323Z,28.68
2018-08-12T14:29:36.314Z,28.81